sensor_id;sensor_type;location;lat;lon;timestamp;P1;durP1;ratioP1;P2;durP2;ratioP2
55146;SDS011;41039;49.830;23.988;2023-03-04T00:01:46;34.97;;;15.38;;
55146;SDS011;41039;49.830;23.988;2023-03-04T00:04:11;36.45;;;17.45;;
55146;SDS011;41039;49.830;23.988;2023-03-04T00:06:37;34.40;;;15.40;;
55146;SDS011;41039;49.830;23.988;2023-03-04T00:09:03;34.00;;;16.85;;
55146;SDS011;41039;49.830;23.988;2023-03-04T00:11:29;28.50;;;14.00;;
55146;SDS011;41039;49.830;23.988;2023-03-04T00:13:54;35.58;;;16.13;;
55146;SDS011;41039;49.830;23.988;2023-03-04T00:16:19;38.42;;;18.05;;
55146;SDS011;41039;49.830;23.988;2023-03-04T00:18:45;35.35;;;16.15;;
55146;SDS011;41039;49.830;23.988;2023-03-04T00:21:10;36.85;;;15.63;;
55146;SDS011;41039;49.830;23.988;2023-03-04T00:23:35;33.45;;;14.88;;
55146;SDS011;41039;49.830;23.988;2023-03-04T00:26:00;35.42;;;16.55;;
55146;SDS011;41039;49.830;23.988;2023-03-04T00:28:26;35.72;;;16.52;;
55146;SDS011;41039;49.830;23.988;2023-03-04T00:30:52;32.92;;;15.65;;
55146;SDS011;41039;49.830;23.988;2023-03-04T00:33:17;33.03;;;14.43;;
55146;SDS011;41039;49.830;23.988;2023-03-04T00:35:42;35.25;;;16.40;;
55146;SDS011;41039;49.830;23.988;2023-03-04T00:38:07;33.58;;;15.55;;
55146;SDS011;41039;49.830;23.988;2023-03-04T00:40:33;37.60;;;17.75;;
55146;SDS011;41039;49.830;23.988;2023-03-04T00:42:58;32.22;;;17.10;;
55146;SDS011;41039;49.830;23.988;2023-03-04T00:45:23;38.97;;;17.80;;
55146;SDS011;41039;49.830;23.988;2023-03-04T00:47:48;35.28;;;17.10;;
55146;SDS011;41039;49.830;23.988;2023-03-04T00:50:14;35.53;;;16.58;;
55146;SDS011;41039;49.830;23.988;2023-03-04T00:52:39;36.80;;;18.08;;
55146;SDS011;41039;49.830;23.988;2023-03-04T00:55:04;34.42;;;17.25;;
55146;SDS011;41039;49.830;23.988;2023-03-04T00:57:30;34.35;;;14.77;;
55146;SDS011;41039;49.830;23.988;2023-03-04T00:59:55;33.88;;;17.13;;
55146;SDS011;41039;49.830;23.988;2023-03-04T01:02:20;39.55;;;17.45;;
55146;SDS011;41039;49.830;23.988;2023-03-04T01:04:45;32.15;;;15.57;;
55146;SDS011;41039;49.830;23.988;2023-03-04T01:07:11;31.38;;;14.10;;
55146;SDS011;41039;49.830;23.988;2023-03-04T01:09:36;33.13;;;16.88;;
55146;SDS011;41039;49.830;23.988;2023-03-04T01:12:01;33.75;;;16.27;;
55146;SDS011;41039;49.830;23.988;2023-03-04T01:14:27;36.17;;;16.25;;
55146;SDS011;41039;49.830;23.988;2023-03-04T01:16:52;32.92;;;16.30;;
55146;SDS011;41039;49.830;23.988;2023-03-04T01:19:17;37.72;;;17.70;;
55146;SDS011;41039;49.830;23.988;2023-03-04T01:21:43;34.85;;;15.35;;
55146;SDS011;41039;49.830;23.988;2023-03-04T01:24:08;33.28;;;15.50;;
55146;SDS011;41039;49.830;23.988;2023-03-04T01:26:33;42.05;;;17.42;;
55146;SDS011;41039;49.830;23.988;2023-03-04T01:28:59;36.60;;;16.40;;
55146;SDS011;41039;49.830;23.988;2023-03-04T01:31:24;39.67;;;18.60;;
55146;SDS011;41039;49.830;23.988;2023-03-04T01:33:49;35.22;;;16.65;;
55146;SDS011;41039;49.830;23.988;2023-03-04T01:36:15;39.15;;;18.08;;
55146;SDS011;41039;49.830;23.988;2023-03-04T01:38:40;36.38;;;16.88;;
55146;SDS011;41039;49.830;23.988;2023-03-04T01:41:05;31.42;;;16.13;;
55146;SDS011;41039;49.830;23.988;2023-03-04T01:43:31;37.72;;;17.67;;
55146;SDS011;41039;49.830;23.988;2023-03-04T01:45:57;33.00;;;16.30;;
55146;SDS011;41039;49.830;23.988;2023-03-04T01:48:26;39.03;;;17.77;;
55146;SDS011;41039;49.830;23.988;2023-03-04T01:50:53;29.98;;;14.80;;
55146;SDS011;41039;49.830;23.988;2023-03-04T01:53:25;30.27;;;14.88;;
55146;SDS011;41039;49.830;23.988;2023-03-04T01:55:55;33.80;;;17.15;;
55146;SDS011;41039;49.830;23.988;2023-03-04T01:58:20;30.23;;;15.55;;
55146;SDS011;41039;49.830;23.988;2023-03-04T02:00:47;32.33;;;16.55;;
55146;SDS011;41039;49.830;23.988;2023-03-04T02:03:14;28.27;;;15.55;;
55146;SDS011;41039;49.830;23.988;2023-03-04T02:05:41;34.38;;;17.00;;
55146;SDS011;41039;49.830;23.988;2023-03-04T02:08:07;35.70;;;16.48;;
55146;SDS011;41039;49.830;23.988;2023-03-04T02:10:33;33.00;;;16.90;;
55146;SDS011;41039;49.830;23.988;2023-03-04T02:12:59;35.97;;;16.45;;
55146;SDS011;41039;49.830;23.988;2023-03-04T02:15:24;32.80;;;15.30;;
55146;SDS011;41039;49.830;23.988;2023-03-04T02:17:49;36.13;;;15.40;;
55146;SDS011;41039;49.830;23.988;2023-03-04T02:22:56;37.95;;;17.55;;
55146;SDS011;41039;49.830;23.988;2023-03-04T02:25:26;33.30;;;15.52;;
55146;SDS011;41039;49.830;23.988;2023-03-04T02:27:52;30.23;;;15.57;;
55146;SDS011;41039;49.830;23.988;2023-03-04T02:30:19;36.00;;;16.23;;
55146;SDS011;41039;49.830;23.988;2023-03-04T02:32:45;31.23;;;14.77;;
55146;SDS011;41039;49.830;23.988;2023-03-04T02:35:15;28.23;;;13.93;;
55146;SDS011;41039;49.830;23.988;2023-03-04T02:37:41;33.38;;;15.57;;
55146;SDS011;41039;49.830;23.988;2023-03-04T02:40:08;33.88;;;16.23;;
55146;SDS011;41039;49.830;23.988;2023-03-04T02:42:37;31.75;;;16.55;;
55146;SDS011;41039;49.830;23.988;2023-03-04T02:45:02;38.92;;;15.98;;
55146;SDS011;41039;49.830;23.988;2023-03-04T02:47:27;32.15;;;15.20;;
55146;SDS011;41039;49.830;23.988;2023-03-04T02:49:52;37.60;;;16.35;;
55146;SDS011;41039;49.830;23.988;2023-03-04T02:52:18;45.03;;;15.52;;
55146;SDS011;41039;49.830;23.988;2023-03-04T02:54:44;34.53;;;15.55;;
55146;SDS011;41039;49.830;23.988;2023-03-04T02:57:10;27.92;;;14.88;;
55146;SDS011;41039;49.830;23.988;2023-03-04T02:59:36;31.80;;;15.45;;
55146;SDS011;41039;49.830;23.988;2023-03-04T03:02:01;33.72;;;14.70;;
55146;SDS011;41039;49.830;23.988;2023-03-04T03:04:27;33.85;;;15.40;;
55146;SDS011;41039;49.830;23.988;2023-03-04T03:06:52;34.03;;;15.13;;
55146;SDS011;41039;49.830;23.988;2023-03-04T03:09:18;33.92;;;15.50;;
55146;SDS011;41039;49.830;23.988;2023-03-04T03:11:43;36.92;;;16.60;;
55146;SDS011;41039;49.830;23.988;2023-03-04T03:14:09;36.63;;;16.27;;
55146;SDS011;41039;49.830;23.988;2023-03-04T03:16:34;39.42;;;17.58;;
55146;SDS011;41039;49.830;23.988;2023-03-04T03:18:59;34.78;;;15.98;;
55146;SDS011;41039;49.830;23.988;2023-03-04T03:21:24;32.95;;;16.50;;
55146;SDS011;41039;49.830;23.988;2023-03-04T03:23:50;37.38;;;16.90;;
55146;SDS011;41039;49.830;23.988;2023-03-04T03:26:15;34.58;;;14.75;;
55146;SDS011;41039;49.830;23.988;2023-03-04T03:28:40;32.63;;;16.50;;
55146;SDS011;41039;49.830;23.988;2023-03-04T03:31:06;33.95;;;17.48;;
55146;SDS011;41039;49.830;23.988;2023-03-04T03:33:31;35.03;;;16.38;;
55146;SDS011;41039;49.830;23.988;2023-03-04T03:35:56;35.50;;;17.00;;
55146;SDS011;41039;49.830;23.988;2023-03-04T03:38:22;41.22;;;17.42;;
55146;SDS011;41039;49.830;23.988;2023-03-04T03:40:47;32.45;;;15.35;;
55146;SDS011;41039;49.830;23.988;2023-03-04T03:43:12;31.65;;;15.13;;
55146;SDS011;41039;49.830;23.988;2023-03-04T03:45:37;34.38;;;16.08;;
55146;SDS011;41039;49.830;23.988;2023-03-04T03:48:03;33.63;;;15.73;;
55146;SDS011;41039;49.830;23.988;2023-03-04T03:50:28;40.45;;;16.98;;
55146;SDS011;41039;49.830;23.988;2023-03-04T03:52:53;32.72;;;14.52;;
55146;SDS011;41039;49.830;23.988;2023-03-04T03:55:19;34.15;;;16.50;;
55146;SDS011;41039;49.830;23.988;2023-03-04T03:57:44;35.47;;;16.33;;
55146;SDS011;41039;49.830;23.988;2023-03-04T04:00:09;32.33;;;16.35;;
55146;SDS011;41039;49.830;23.988;2023-03-04T04:02:35;36.63;;;15.27;;
55146;SDS011;41039;49.830;23.988;2023-03-04T04:05:00;36.47;;;16.92;;
55146;SDS011;41039;49.830;23.988;2023-03-04T04:07:25;42.78;;;18.60;;
55146;SDS011;41039;49.830;23.988;2023-03-04T04:09:51;32.22;;;15.95;;
55146;SDS011;41039;49.830;23.988;2023-03-04T04:12:17;39.80;;;17.30;;
55146;SDS011;41039;49.830;23.988;2023-03-04T04:14:42;35.67;;;15.60;;
55146;SDS011;41039;49.830;23.988;2023-03-04T04:17:08;37.38;;;17.23;;
55146;SDS011;41039;49.830;23.988;2023-03-04T04:19:33;37.03;;;16.25;;
55146;SDS011;41039;49.830;23.988;2023-03-04T04:21:58;32.53;;;14.70;;
55146;SDS011;41039;49.830;23.988;2023-03-04T04:24:23;30.33;;;14.93;;
55146;SDS011;41039;49.830;23.988;2023-03-04T04:26:49;35.17;;;16.27;;
55146;SDS011;41039;49.830;23.988;2023-03-04T04:29:14;34.78;;;15.10;;
55146;SDS011;41039;49.830;23.988;2023-03-04T04:31:40;36.50;;;15.85;;
55146;SDS011;41039;49.830;23.988;2023-03-04T04:34:05;33.50;;;15.52;;
55146;SDS011;41039;49.830;23.988;2023-03-04T04:36:30;39.40;;;16.45;;
55146;SDS011;41039;49.830;23.988;2023-03-04T04:38:56;36.85;;;16.73;;
55146;SDS011;41039;49.830;23.988;2023-03-04T04:41:25;37.90;;;16.60;;
55146;SDS011;41039;49.830;23.988;2023-03-04T04:43:51;36.50;;;16.55;;
55146;SDS011;41039;49.830;23.988;2023-03-04T04:46:16;35.72;;;16.05;;
55146;SDS011;41039;49.830;23.988;2023-03-04T04:48:42;38.42;;;15.85;;
55146;SDS011;41039;49.830;23.988;2023-03-04T04:51:07;38.97;;;16.80;;
55146;SDS011;41039;49.830;23.988;2023-03-04T04:53:32;40.55;;;16.63;;
55146;SDS011;41039;49.830;23.988;2023-03-04T04:55:58;38.95;;;17.52;;
55146;SDS011;41039;49.830;23.988;2023-03-04T04:58:23;29.70;;;13.77;;
55146;SDS011;41039;49.830;23.988;2023-03-04T05:00:48;35.53;;;15.38;;
55146;SDS011;41039;49.830;23.988;2023-03-04T05:03:14;37.00;;;16.85;;
55146;SDS011;41039;49.830;23.988;2023-03-04T05:05:39;38.70;;;16.85;;
55146;SDS011;41039;49.830;23.988;2023-03-04T05:08:04;33.58;;;15.27;;
55146;SDS011;41039;49.830;23.988;2023-03-04T05:10:29;41.15;;;17.50;;
55146;SDS011;41039;49.830;23.988;2023-03-04T05:12:55;46.75;;;17.20;;
55146;SDS011;41039;49.830;23.988;2023-03-04T05:15:20;34.20;;;16.92;;
55146;SDS011;41039;49.830;23.988;2023-03-04T05:17:45;42.28;;;16.60;;
55146;SDS011;41039;49.830;23.988;2023-03-04T05:20:10;41.08;;;17.63;;
55146;SDS011;41039;49.830;23.988;2023-03-04T05:22:36;42.92;;;16.95;;
55146;SDS011;41039;49.830;23.988;2023-03-04T05:25:01;43.70;;;19.83;;
55146;SDS011;41039;49.830;23.988;2023-03-04T05:27:26;35.45;;;16.73;;
55146;SDS011;41039;49.830;23.988;2023-03-04T05:29:52;42.63;;;16.75;;
55146;SDS011;41039;49.830;23.988;2023-03-04T05:32:18;41.15;;;18.65;;
55146;SDS011;41039;49.830;23.988;2023-03-04T05:34:43;40.22;;;17.90;;
55146;SDS011;41039;49.830;23.988;2023-03-04T05:37:08;43.05;;;18.98;;
55146;SDS011;41039;49.830;23.988;2023-03-04T05:39:33;45.00;;;19.92;;
55146;SDS011;41039;49.830;23.988;2023-03-04T05:41:58;49.30;;;18.75;;
55146;SDS011;41039;49.830;23.988;2023-03-04T05:44:24;45.63;;;17.30;;
55146;SDS011;41039;49.830;23.988;2023-03-04T05:46:49;42.65;;;18.63;;
55146;SDS011;41039;49.830;23.988;2023-03-04T05:49:14;41.30;;;17.98;;
55146;SDS011;41039;49.830;23.988;2023-03-04T05:51:39;38.05;;;16.70;;
55146;SDS011;41039;49.830;23.988;2023-03-04T05:54:05;39.90;;;17.40;;
55146;SDS011;41039;49.830;23.988;2023-03-04T05:56:30;45.58;;;18.77;;
55146;SDS011;41039;49.830;23.988;2023-03-04T05:58:57;44.75;;;20.05;;
55146;SDS011;41039;49.830;23.988;2023-03-04T06:01:23;41.40;;;18.98;;
55146;SDS011;41039;49.830;23.988;2023-03-04T06:03:48;48.00;;;19.88;;
55146;SDS011;41039;49.830;23.988;2023-03-04T06:06:13;43.45;;;18.67;;
55146;SDS011;41039;49.830;23.988;2023-03-04T06:08:39;38.85;;;17.38;;
55146;SDS011;41039;49.830;23.988;2023-03-04T06:11:04;51.08;;;20.73;;
55146;SDS011;41039;49.830;23.988;2023-03-04T06:13:29;44.15;;;19.17;;
55146;SDS011;41039;49.830;23.988;2023-03-04T06:15:55;42.72;;;18.40;;
55146;SDS011;41039;49.830;23.988;2023-03-04T06:18:21;43.22;;;18.23;;
55146;SDS011;41039;49.830;23.988;2023-03-04T06:20:46;56.70;;;23.60;;
55146;SDS011;41039;49.830;23.988;2023-03-04T06:23:12;48.67;;;19.85;;
55146;SDS011;41039;49.830;23.988;2023-03-04T06:25:37;41.67;;;22.42;;
55146;SDS011;41039;49.830;23.988;2023-03-04T06:28:02;38.78;;;18.00;;
55146;SDS011;41039;49.830;23.988;2023-03-04T06:30:27;44.42;;;19.58;;
55146;SDS011;41039;49.830;23.988;2023-03-04T06:32:53;45.63;;;21.02;;
55146;SDS011;41039;49.830;23.988;2023-03-04T06:35:18;50.92;;;18.38;;
55146;SDS011;41039;49.830;23.988;2023-03-04T06:37:43;47.47;;;20.65;;
55146;SDS011;41039;49.830;23.988;2023-03-04T06:40:09;42.72;;;19.05;;
55146;SDS011;41039;49.830;23.988;2023-03-04T06:42:34;35.15;;;16.33;;
55146;SDS011;41039;49.830;23.988;2023-03-04T06:45:00;42.60;;;18.35;;
55146;SDS011;41039;49.830;23.988;2023-03-04T06:47:26;37.88;;;17.83;;
55146;SDS011;41039;49.830;23.988;2023-03-04T06:49:51;40.83;;;18.20;;
55146;SDS011;41039;49.830;23.988;2023-03-04T06:52:17;36.65;;;18.48;;
55146;SDS011;41039;49.830;23.988;2023-03-04T06:54:42;47.53;;;21.45;;
55146;SDS011;41039;49.830;23.988;2023-03-04T06:57:07;47.95;;;21.35;;
55146;SDS011;41039;49.830;23.988;2023-03-04T06:59:33;36.05;;;17.63;;
55146;SDS011;41039;49.830;23.988;2023-03-04T07:01:58;42.38;;;20.25;;
55146;SDS011;41039;49.830;23.988;2023-03-04T07:04:23;40.00;;;19.65;;
55146;SDS011;41039;49.830;23.988;2023-03-04T07:06:49;42.30;;;22.98;;
55146;SDS011;41039;49.830;23.988;2023-03-04T07:09:14;34.42;;;18.45;;
55146;SDS011;41039;49.830;23.988;2023-03-04T07:11:39;34.75;;;18.63;;
55146;SDS011;41039;49.830;23.988;2023-03-04T07:14:04;36.15;;;20.00;;
55146;SDS011;41039;49.830;23.988;2023-03-04T07:16:30;38.53;;;18.48;;
55146;SDS011;41039;49.830;23.988;2023-03-04T07:18:55;34.30;;;18.75;;
55146;SDS011;41039;49.830;23.988;2023-03-04T07:21:20;41.92;;;20.48;;
55146;SDS011;41039;49.830;23.988;2023-03-04T07:23:46;34.45;;;19.00;;
55146;SDS011;41039;49.830;23.988;2023-03-04T07:26:11;42.05;;;19.27;;
55146;SDS011;41039;49.830;23.988;2023-03-04T07:28:36;41.90;;;20.58;;
55146;SDS011;41039;49.830;23.988;2023-03-04T07:31:19;36.47;;;18.70;;
55146;SDS011;41039;49.830;23.988;2023-03-04T07:33:45;38.25;;;18.23;;
55146;SDS011;41039;49.830;23.988;2023-03-04T07:36:10;36.28;;;18.17;;
55146;SDS011;41039;49.830;23.988;2023-03-04T07:38:35;32.80;;;17.80;;
55146;SDS011;41039;49.830;23.988;2023-03-04T07:41:01;32.05;;;18.27;;
55146;SDS011;41039;49.830;23.988;2023-03-04T07:43:26;42.28;;;20.02;;
55146;SDS011;41039;49.830;23.988;2023-03-04T07:45:51;34.65;;;19.27;;
55146;SDS011;41039;49.830;23.988;2023-03-04T07:48:17;39.85;;;19.65;;
55146;SDS011;41039;49.830;23.988;2023-03-04T07:50:42;32.15;;;17.73;;
55146;SDS011;41039;49.830;23.988;2023-03-04T07:53:07;33.08;;;18.98;;
55146;SDS011;41039;49.830;23.988;2023-03-04T07:55:32;33.22;;;16.67;;
55146;SDS011;41039;49.830;23.988;2023-03-04T07:57:58;30.67;;;17.30;;
55146;SDS011;41039;49.830;23.988;2023-03-04T08:00:23;56.05;;;19.45;;
55146;SDS011;41039;49.830;23.988;2023-03-04T08:02:49;39.65;;;17.08;;
55146;SDS011;41039;49.830;23.988;2023-03-04T08:05:14;39.80;;;19.80;;
55146;SDS011;41039;49.830;23.988;2023-03-04T08:07:39;36.42;;;18.90;;
55146;SDS011;41039;49.830;23.988;2023-03-04T08:10:04;39.25;;;20.05;;
55146;SDS011;41039;49.830;23.988;2023-03-04T08:12:30;32.45;;;18.63;;
55146;SDS011;41039;49.830;23.988;2023-03-04T08:14:55;38.22;;;18.13;;
55146;SDS011;41039;49.830;23.988;2023-03-04T08:17:20;35.40;;;17.30;;
55146;SDS011;41039;49.830;23.988;2023-03-04T08:19:46;27.42;;;15.98;;
55146;SDS011;41039;49.830;23.988;2023-03-04T08:22:11;28.25;;;15.23;;
55146;SDS011;41039;49.830;23.988;2023-03-04T08:24:36;31.35;;;16.23;;
55146;SDS011;41039;49.830;23.988;2023-03-04T08:27:02;34.80;;;16.52;;
55146;SDS011;41039;49.830;23.988;2023-03-04T08:29:27;49.20;;;16.95;;
55146;SDS011;41039;49.830;23.988;2023-03-04T08:31:53;43.80;;;18.52;;
55146;SDS011;41039;49.830;23.988;2023-03-04T08:34:20;27.27;;;14.10;;
55146;SDS011;41039;49.830;23.988;2023-03-04T08:36:45;30.58;;;15.57;;
55146;SDS011;41039;49.830;23.988;2023-03-04T08:39:12;29.65;;;14.43;;
55146;SDS011;41039;49.830;23.988;2023-03-04T08:41:37;24.25;;;13.77;;
55146;SDS011;41039;49.830;23.988;2023-03-04T08:44:03;30.33;;;14.38;;
55146;SDS011;41039;49.830;23.988;2023-03-04T08:46:28;31.50;;;13.60;;
55146;SDS011;41039;49.830;23.988;2023-03-04T08:48:53;26.48;;;14.10;;
55146;SDS011;41039;49.830;23.988;2023-03-04T08:51:19;37.72;;;14.48;;
55146;SDS011;41039;49.830;23.988;2023-03-04T08:53:44;35.03;;;15.60;;
55146;SDS011;41039;49.830;23.988;2023-03-04T08:56:10;35.28;;;14.68;;
55146;SDS011;41039;49.830;23.988;2023-03-04T08:58:36;27.70;;;13.25;;
55146;SDS011;41039;49.830;23.988;2023-03-04T09:01:01;24.15;;;12.55;;
55146;SDS011;41039;49.830;23.988;2023-03-04T09:03:27;28.35;;;14.50;;
55146;SDS011;41039;49.830;23.988;2023-03-04T09:05:52;26.10;;;13.75;;
55146;SDS011;41039;49.830;23.988;2023-03-04T09:08:17;26.90;;;13.27;;
55146;SDS011;41039;49.830;23.988;2023-03-04T09:10:43;35.22;;;16.30;;
55146;SDS011;41039;49.830;23.988;2023-03-04T09:13:08;39.63;;;14.07;;
55146;SDS011;41039;49.830;23.988;2023-03-04T09:15:35;24.10;;;13.68;;
55146;SDS011;41039;49.830;23.988;2023-03-04T09:18:01;31.80;;;12.52;;
55146;SDS011;41039;49.830;23.988;2023-03-04T09:20:27;30.25;;;12.98;;
55146;SDS011;41039;49.830;23.988;2023-03-04T09:22:52;25.25;;;13.32;;
55146;SDS011;41039;49.830;23.988;2023-03-04T09:25:18;35.63;;;14.98;;
55146;SDS011;41039;49.830;23.988;2023-03-04T09:27:43;31.40;;;15.13;;
55146;SDS011;41039;49.830;23.988;2023-03-04T09:30:08;33.20;;;13.43;;
55146;SDS011;41039;49.830;23.988;2023-03-04T09:32:34;43.47;;;15.00;;
55146;SDS011;41039;49.830;23.988;2023-03-04T09:34:59;31.13;;;15.30;;
55146;SDS011;41039;49.830;23.988;2023-03-04T09:37:24;33.00;;;14.88;;
55146;SDS011;41039;49.830;23.988;2023-03-04T09:39:49;31.80;;;14.85;;
55146;SDS011;41039;49.830;23.988;2023-03-04T09:42:26;23.90;;;13.05;;
55146;SDS011;41039;49.830;23.988;2023-03-04T09:44:52;25.10;;;12.88;;
55146;SDS011;41039;49.830;23.988;2023-03-04T09:47:18;39.10;;;13.60;;
55146;SDS011;41039;49.830;23.988;2023-03-04T09:49:45;28.83;;;14.77;;
55146;SDS011;41039;49.830;23.988;2023-03-04T09:55:11;30.48;;;16.25;;
55146;SDS011;41039;49.830;23.988;2023-03-04T10:00:20;30.92;;;13.95;;
55146;SDS011;41039;49.830;23.988;2023-03-04T10:02:50;26.67;;;13.80;;
55146;SDS011;41039;49.830;23.988;2023-03-04T10:05:20;28.80;;;14.63;;
55146;SDS011;41039;49.830;23.988;2023-03-04T10:07:47;29.08;;;15.18;;
55146;SDS011;41039;49.830;23.988;2023-03-04T10:10:28;27.17;;;15.13;;
55146;SDS011;41039;49.830;23.988;2023-03-04T10:12:54;27.60;;;15.50;;
55146;SDS011;41039;49.830;23.988;2023-03-04T10:17:57;37.78;;;16.33;;
55146;SDS011;41039;49.830;23.988;2023-03-04T10:23:18;30.00;;;16.63;;
55146;SDS011;41039;49.830;23.988;2023-03-04T10:25:44;31.70;;;18.98;;
55146;SDS011;41039;49.830;23.988;2023-03-04T10:28:17;30.63;;;16.83;;
55146;SDS011;41039;49.830;23.988;2023-03-04T10:33:28;27.88;;;18.20;;
55146;SDS011;41039;49.830;23.988;2023-03-04T10:38:24;29.73;;;17.35;;
55146;SDS011;41039;49.830;23.988;2023-03-04T10:40:50;30.33;;;19.27;;
55146;SDS011;41039;49.830;23.988;2023-03-04T10:43:16;29.60;;;17.83;;
55146;SDS011;41039;49.830;23.988;2023-03-04T10:45:42;35.72;;;19.60;;
55146;SDS011;41039;49.830;23.988;2023-03-04T10:48:16;33.65;;;20.42;;
55146;SDS011;41039;49.830;23.988;2023-03-04T10:50:41;29.73;;;19.63;;
55146;SDS011;41039;49.830;23.988;2023-03-04T10:53:09;34.45;;;19.70;;
55146;SDS011;41039;49.830;23.988;2023-03-04T10:55:46;30.92;;;18.55;;
55146;SDS011;41039;49.830;23.988;2023-03-04T10:58:12;30.17;;;17.42;;
55146;SDS011;41039;49.830;23.988;2023-03-04T11:00:39;38.13;;;19.70;;
55146;SDS011;41039;49.830;23.988;2023-03-04T11:05:49;32.45;;;17.80;;
55146;SDS011;41039;49.830;23.988;2023-03-04T11:08:18;35.45;;;19.60;;
55146;SDS011;41039;49.830;23.988;2023-03-04T11:10:43;31.42;;;17.70;;
55146;SDS011;41039;49.830;23.988;2023-03-04T11:15:53;33.88;;;18.73;;
55146;SDS011;41039;49.830;23.988;2023-03-04T11:18:21;40.42;;;20.25;;
55146;SDS011;41039;49.830;23.988;2023-03-04T11:20:47;32.35;;;18.80;;
55146;SDS011;41039;49.830;23.988;2023-03-04T11:23:15;31.17;;;17.92;;
55146;SDS011;41039;49.830;23.988;2023-03-04T11:25:42;26.25;;;16.95;;
55146;SDS011;41039;49.830;23.988;2023-03-04T11:28:13;28.20;;;17.75;;
55146;SDS011;41039;49.830;23.988;2023-03-04T11:30:46;36.97;;;19.17;;
55146;SDS011;41039;49.830;23.988;2023-03-04T11:33:14;32.20;;;18.30;;
55146;SDS011;41039;49.830;23.988;2023-03-04T11:35:46;35.25;;;19.02;;
55146;SDS011;41039;49.830;23.988;2023-03-04T11:38:22;31.17;;;18.52;;
55146;SDS011;41039;49.830;23.988;2023-03-04T11:40:58;26.10;;;15.68;;
55146;SDS011;41039;49.830;23.988;2023-03-04T11:43:31;30.92;;;17.65;;
55146;SDS011;41039;49.830;23.988;2023-03-04T11:56:43;26.85;;;14.45;;
55146;SDS011;41039;49.830;23.988;2023-03-04T12:01:50;26.08;;;15.02;;
55146;SDS011;41039;49.830;23.988;2023-03-04T12:04:38;26.08;;;14.57;;
55146;SDS011;41039;49.830;23.988;2023-03-04T12:07:08;23.20;;;14.55;;
55146;SDS011;41039;49.830;23.988;2023-03-04T12:27:50;24.23;;;13.82;;
55146;SDS011;41039;49.830;23.988;2023-03-04T12:40:25;24.75;;;14.85;;
55146;SDS011;41039;49.830;23.988;2023-03-04T12:55:49;24.55;;;14.25;;
55146;SDS011;41039;49.830;23.988;2023-03-04T12:58:17;28.65;;;15.73;;
55146;SDS011;41039;49.830;23.988;2023-03-04T13:05:50;26.10;;;13.60;;
55146;SDS011;41039;49.830;23.988;2023-03-04T13:10:49;22.10;;;12.98;;
55146;SDS011;41039;49.830;23.988;2023-03-04T13:18:35;23.02;;;13.85;;
55146;SDS011;41039;49.830;23.988;2023-03-04T13:23:30;25.88;;;13.88;;
55146;SDS011;41039;49.830;23.988;2023-03-04T13:43:36;28.67;;;15.20;;
55146;SDS011;41039;49.830;23.988;2023-03-04T13:51:22;23.65;;;14.90;;
55146;SDS011;41039;49.830;23.988;2023-03-04T13:53:52;23.33;;;13.48;;
55146;SDS011;41039;49.830;23.988;2023-03-04T14:01:31;24.75;;;14.43;;
55146;SDS011;41039;49.830;23.988;2023-03-04T14:03:57;21.17;;;12.25;;
55146;SDS011;41039;49.830;23.988;2023-03-04T14:08:48;27.63;;;14.55;;
55146;SDS011;41039;49.830;23.988;2023-03-04T14:11:24;22.08;;;13.65;;
55146;SDS011;41039;49.830;23.988;2023-03-04T14:13:50;26.00;;;13.85;;
55146;SDS011;41039;49.830;23.988;2023-03-04T14:16:19;25.10;;;13.88;;
55146;SDS011;41039;49.830;23.988;2023-03-04T14:18:45;33.13;;;14.70;;
55146;SDS011;41039;49.830;23.988;2023-03-04T14:21:20;22.48;;;12.63;;
55146;SDS011;41039;49.830;23.988;2023-03-04T14:23:45;26.55;;;13.20;;
55146;SDS011;41039;49.830;23.988;2023-03-04T14:26:11;26.42;;;13.30;;
55146;SDS011;41039;49.830;23.988;2023-03-04T14:28:47;24.10;;;11.07;;
55146;SDS011;41039;49.830;23.988;2023-03-04T14:31:16;27.55;;;12.88;;
55146;SDS011;41039;49.830;23.988;2023-03-04T14:33:46;25.13;;;13.38;;
55146;SDS011;41039;49.830;23.988;2023-03-04T14:36:16;28.30;;;13.55;;
55146;SDS011;41039;49.830;23.988;2023-03-04T14:38:42;20.70;;;11.88;;
55146;SDS011;41039;49.830;23.988;2023-03-04T14:41:09;23.73;;;12.63;;
55146;SDS011;41039;49.830;23.988;2023-03-04T14:43:50;25.42;;;13.73;;
55146;SDS011;41039;49.830;23.988;2023-03-04T14:46:17;26.60;;;12.27;;
55146;SDS011;41039;49.830;23.988;2023-03-04T14:48:52;27.17;;;11.68;;
55146;SDS011;41039;49.830;23.988;2023-03-04T14:51:31;22.52;;;12.70;;
55146;SDS011;41039;49.830;23.988;2023-03-04T14:53:57;23.42;;;11.52;;
55146;SDS011;41039;49.830;23.988;2023-03-04T14:56:26;22.63;;;12.50;;
55146;SDS011;41039;49.830;23.988;2023-03-04T14:58:54;30.55;;;13.93;;
55146;SDS011;41039;49.830;23.988;2023-03-04T15:01:20;23.55;;;13.23;;
55146;SDS011;41039;49.830;23.988;2023-03-04T15:03:56;26.23;;;13.95;;
55146;SDS011;41039;49.830;23.988;2023-03-04T15:06:23;21.08;;;11.13;;
55146;SDS011;41039;49.830;23.988;2023-03-04T15:11:30;25.42;;;13.20;;
55146;SDS011;41039;49.830;23.988;2023-03-04T15:13:57;28.20;;;13.23;;
55146;SDS011;41039;49.830;23.988;2023-03-04T15:16:23;25.35;;;12.32;;
55146;SDS011;41039;49.830;23.988;2023-03-04T15:19:05;27.98;;;13.02;;
55146;SDS011;41039;49.830;23.988;2023-03-04T15:21:38;22.08;;;12.88;;
55146;SDS011;41039;49.830;23.988;2023-03-04T15:24:05;19.63;;;10.38;;
55146;SDS011;41039;49.830;23.988;2023-03-04T15:26:31;29.02;;;13.30;;
55146;SDS011;41039;49.830;23.988;2023-03-04T15:28:57;31.35;;;13.05;;
55146;SDS011;41039;49.830;23.988;2023-03-04T15:31:23;25.92;;;12.95;;
55146;SDS011;41039;49.830;23.988;2023-03-04T15:33:49;26.55;;;12.48;;
55146;SDS011;41039;49.830;23.988;2023-03-04T15:36:16;27.35;;;14.75;;
55146;SDS011;41039;49.830;23.988;2023-03-04T15:38:43;25.17;;;13.45;;
55146;SDS011;41039;49.830;23.988;2023-03-04T15:41:09;24.25;;;12.07;;
55146;SDS011;41039;49.830;23.988;2023-03-04T15:43:35;20.88;;;11.38;;
55146;SDS011;41039;49.830;23.988;2023-03-04T15:46:00;24.77;;;12.82;;
55146;SDS011;41039;49.830;23.988;2023-03-04T15:48:27;22.80;;;12.40;;
55146;SDS011;41039;49.830;23.988;2023-03-04T15:50:56;26.80;;;12.20;;
55146;SDS011;41039;49.830;23.988;2023-03-04T15:53:31;23.67;;;12.75;;
55146;SDS011;41039;49.830;23.988;2023-03-04T15:55:57;30.88;;;15.98;;
55146;SDS011;41039;49.830;23.988;2023-03-04T15:58:23;27.25;;;14.82;;
55146;SDS011;41039;49.830;23.988;2023-03-04T16:00:48;31.52;;;15.98;;
55146;SDS011;41039;49.830;23.988;2023-03-04T16:03:14;29.30;;;13.57;;
55146;SDS011;41039;49.830;23.988;2023-03-04T16:05:40;25.67;;;12.77;;
55146;SDS011;41039;49.830;23.988;2023-03-04T16:08:05;24.95;;;12.80;;
55146;SDS011;41039;49.830;23.988;2023-03-04T16:10:31;26.83;;;12.90;;
55146;SDS011;41039;49.830;23.988;2023-03-04T16:12:56;23.42;;;11.70;;